Terminal Aerodrome Forecast
Issued by NWS

Home | Current Version | Previous Version | Text Only | Print | Product List | Glossary On
Versions: 1 2 3 4 5 6 7 8 9 10 11 12 13 14 15 16 17 18 19 20 21 22 23 24 25 26 27 28 29
865
FTUS41 KOKX 221452 AAC
TAFGON
TAF AMD
KGON 221452Z 2215/2312 15011KT P6SM OVC040
     FM221800 14011KT 2SM -RA BR OVC008
     FM222200 13009KT 2SM -RA BR OVC004
     FM230400 16009KT 2SM -RA BR OVC004
     FM230700 VRB03KT 2SM BR OVC004=

USA.gov is the U.S. government's official web portal to all federal, state and local government web resources and services.